createdAt,value
2018-01-05T00:00:34.702Z,98504.81
2018-01-05T00:03:02.496Z,98504.23
2018-01-05T00:05:30.099Z,98506.38
2018-01-05T00:07:57.831Z,98502.13
2018-01-05T00:10:25.462Z,98501.38
2018-01-05T00:12:53.226Z,98497.86
2018-01-05T00:15:20.886Z,98502.18
2018-01-05T00:17:48.704Z,98505.13
2018-01-05T00:20:16.268Z,98505.73
2018-01-05T00:22:44.040Z,98500.80
2018-01-05T00:25:11.750Z,98498.87
2018-01-05T00:27:39.313Z,98498.78
2018-01-05T00:30:06.934Z,98495.99
2018-01-05T00:32:34.812Z,98503.39
2018-01-05T00:35:02.382Z,98505.64
2018-01-05T00:37:29.941Z,98501.40
2018-01-05T00:39:57.551Z,98505.12
2018-01-05T00:42:25.284Z,98505.89
2018-01-05T00:44:52.850Z,98509.38
2018-01-05T00:47:20.461Z,98508.35
2018-01-05T00:49:48.241Z,98506.81
2018-01-05T00:52:15.936Z,98507.65
2018-01-05T00:54:43.535Z,98508.31
2018-01-05T00:57:11.096Z,98509.05
2018-01-05T00:59:38.658Z,98505.77
2018-01-05T01:02:06.601Z,98512.31
2018-01-05T01:04:34.317Z,98515.53
2018-01-05T01:07:01.910Z,98502.28
2018-01-05T01:09:29.515Z,98505.63
2018-01-05T01:11:57.302Z,98504.61
2018-01-05T01:14:25.119Z,98502.38
2018-01-05T01:16:52.872Z,98504.38
2018-01-05T01:19:20.452Z,98505.23
2018-01-05T01:21:48.176Z,98504.21
2018-01-05T01:24:15.892Z,98505.81
2018-01-05T01:26:43.455Z,98499.87
2018-01-05T01:29:11.228Z,98506.41
2018-01-05T01:31:38.853Z,98502.41
2018-01-05T01:34:06.666Z,98502.41
2018-01-05T01:36:34.483Z,98498.84
2018-01-05T01:39:02.110Z,98497.88
2018-01-05T01:41:29.675Z,98501.27
2018-01-05T01:43:57.242Z,98501.45
2018-01-05T01:46:24.926Z,98501.27
2018-01-05T01:48:52.482Z,98495.84
2018-01-05T01:51:20.046Z,98498.58
2018-01-05T01:53:47.900Z,98495.10
2018-01-05T01:56:15.474Z,98497.70
2018-01-05T01:58:43.038Z,98494.98
2018-01-05T02:01:10.968Z,98497.45
2018-01-05T02:03:38.537Z,98493.63
2018-01-05T02:06:06.270Z,98500.48
2018-01-05T02:08:33.894Z,98501.45
2018-01-05T02:11:01.635Z,98505.09
2018-01-05T02:13:29.190Z,98506.84
2018-01-05T02:15:56.807Z,98496.64
2018-01-05T02:18:24.376Z,98502.02
2018-01-05T02:20:51.942Z,98496.08
2018-01-05T02:23:19.674Z,98498.12
2018-01-05T02:25:47.444Z,98504.17
2018-01-05T02:28:15.011Z,98506.80
2018-01-05T02:30:42.656Z,98514.33
2018-01-05T02:33:10.373Z,98510.46
2018-01-05T02:35:38.089Z,98513.20
2018-01-05T02:38:05.935Z,98510.91
2018-01-05T02:40:33.499Z,98515.13
2018-01-05T02:43:01.238Z,98512.25
2018-01-05T02:45:28.845Z,98514.33
2018-01-05T02:47:56.570Z,98516.89
2018-01-05T02:50:24.110Z,98524.93
2018-01-05T02:52:51.943Z,98521.86
2018-01-05T02:55:19.552Z,98526.77
2018-01-05T02:57:47.130Z,98527.21
2018-01-05T03:00:14.846Z,98529.28
2018-01-05T03:02:42.406Z,98531.52
2018-01-05T03:05:10.131Z,98523.39
2018-01-05T03:07:37.846Z,98531.16
2018-01-05T03:10:05.410Z,98536.94
2018-01-05T03:12:33.010Z,98533.23
2018-01-05T03:15:00.773Z,98526.10
2018-01-05T03:17:28.339Z,98525.86
2018-01-05T03:19:55.904Z,98527.81
2018-01-05T03:22:23.758Z,98523.67
2018-01-05T03:24:51.318Z,98525.63
2018-01-05T03:27:19.094Z,98530.82
2018-01-05T03:29:47.013Z,98520.05
2018-01-05T03:32:14.574Z,98523.20
2018-01-05T03:34:42.349Z,98526.58
2018-01-05T03:37:10.116Z,98530.33
2018-01-05T03:39:37.680Z,98528.95
2018-01-05T03:42:05.245Z,98534.77
2018-01-05T03:44:32.858Z,98541.45
2018-01-05T03:47:00.640Z,98546.47
2018-01-05T03:49:28.206Z,98555.53
2018-01-05T03:51:55.921Z,98553.88
2018-01-05T03:54:23.585Z,98552.80
2018-01-05T03:56:51.220Z,98557.11
2018-01-05T03:59:18.825Z,98556.08
2018-01-05T04:01:46.547Z,98565.17
2018-01-05T04:04:15.169Z,98559.00
2018-01-05T04:06:42.856Z,98574.80
2018-01-05T04:09:10.414Z,98568.45
2018-01-05T04:11:38.223Z,98572.55
2018-01-05T04:14:06.056Z,98571.70
2018-01-05T04:16:33.625Z,98567.03
2018-01-05T04:19:01.379Z,98571.47
2018-01-05T04:21:29.004Z,98577.22
2018-01-05T04:23:56.814Z,98581.58
2018-01-05T04:26:24.533Z,98578.16
2018-01-05T04:28:52.351Z,98580.31
2018-01-05T04:31:20.169Z,98579.42
2018-01-05T04:33:47.745Z,98580.82
2018-01-05T04:36:15.372Z,98582.70
2018-01-05T04:38:43.097Z,98584.30
2018-01-05T04:41:10.658Z,98585.16
2018-01-05T04:43:38.452Z,98579.94
2018-01-05T04:46:06.022Z,98578.52
2018-01-05T04:48:33.795Z,98577.93
2018-01-05T04:51:01.413Z,98572.04
2018-01-05T04:53:28.985Z,98573.34
2018-01-05T04:55:56.548Z,98572.12
2018-01-05T04:58:24.249Z,98576.45
2018-01-05T05:00:51.827Z,98579.80
2018-01-05T05:03:19.387Z,98581.67
2018-01-05T05:05:47.070Z,98583.75
2018-01-05T05:08:14.838Z,98589.34
2018-01-05T05:10:42.557Z,98589.86
2018-01-05T05:13:10.172Z,98591.29
2018-01-05T05:15:37.774Z,98586.13
2018-01-05T05:18:05.330Z,98582.95
2018-01-05T05:20:33.129Z,98585.72
2018-01-05T05:23:00.694Z,98584.63
2018-01-05T05:25:28.565Z,98590.94
2018-01-05T05:27:56.385Z,98593.39
2018-01-05T05:30:24.103Z,98598.17
2018-01-05T05:32:51.662Z,98586.75
2018-01-05T05:35:19.270Z,98588.29
2018-01-05T05:37:46.846Z,98580.56
2018-01-05T05:40:14.464Z,98577.41
2018-01-05T05:42:42.062Z,98577.66
2018-01-05T05:45:09.701Z,98581.17
2018-01-05T05:47:37.261Z,98582.89
2018-01-05T05:50:05.272Z,98589.12
2018-01-05T05:52:32.847Z,98584.84
2018-01-05T05:55:00.433Z,98589.55
2018-01-05T05:57:28.201Z,98601.73
2018-01-05T05:59:55.757Z,98604.63
2018-01-05T06:02:23.318Z,98616.56
2018-01-05T06:04:50.943Z,98621.34
2018-01-05T06:07:18.651Z,98625.84
2018-01-05T06:09:46.214Z,98625.55
2018-01-05T06:12:14.108Z,98629.86
2018-01-05T06:14:41.716Z,98639.82
2018-01-05T06:17:09.346Z,98651.06
2018-01-05T06:19:36.961Z,98663.41
2018-01-05T06:22:04.534Z,98667.78
2018-01-05T06:24:32.180Z,98674.85
2018-01-05T06:26:59.794Z,98686.02
2018-01-05T06:29:27.534Z,98690.22
2018-01-05T06:31:55.120Z,98683.81
2018-01-05T06:34:22.741Z,98687.23
2018-01-05T06:36:50.487Z,98687.77
2018-01-05T06:39:18.046Z,98689.05
2018-01-05T06:41:46.003Z,98686.91
2018-01-05T06:44:13.658Z,98693.47
2018-01-05T06:46:41.250Z,98692.20
2018-01-05T06:49:08.948Z,98689.48
2018-01-05T06:51:36.696Z,98689.55
2018-01-05T06:54:04.268Z,98688.95
2018-01-05T06:56:31.882Z,98696.83
2018-01-05T06:58:59.446Z,98695.84
2018-01-05T07:01:27.168Z,98692.27
2018-01-05T07:03:54.762Z,98685.33
2018-01-05T07:06:22.322Z,98690.97
2018-01-05T07:08:50.122Z,98688.88
2018-01-05T07:11:17.940Z,98684.73
2018-01-05T07:13:45.502Z,98685.88
2018-01-05T07:16:13.076Z,98687.19
2018-01-05T07:18:40.689Z,98697.83
2018-01-05T07:21:08.245Z,98691.48
2018-01-05T07:23:35.806Z,98689.16
2018-01-05T07:26:03.422Z,98686.52
2018-01-05T07:28:31.000Z,98684.17
2018-01-05T07:30:58.578Z,98683.67
2018-01-05T07:33:26.401Z,98684.94
2018-01-05T07:35:53.962Z,98682.78
2018-01-05T07:38:21.623Z,98685.97
2018-01-05T07:40:49.455Z,98688.50
2018-01-05T07:43:17.274Z,98704.74
2018-01-05T07:45:45.092Z,98694.14
2018-01-05T07:48:12.718Z,98694.61
2018-01-05T07:50:40.529Z,98690.70
2018-01-05T07:53:08.090Z,98698.84
2018-01-05T07:55:35.941Z,98701.50
2018-01-05T07:58:03.656Z,98698.57
2018-01-05T08:00:31.300Z,98699.66
2018-01-05T08:02:58.910Z,98702.75
2018-01-05T08:05:26.478Z,98706.35
2018-01-05T08:07:54.042Z,98693.56
2018-01-05T08:10:21.659Z,98684.86
2018-01-05T08:12:49.392Z,98695.11
2018-01-05T08:15:17.001Z,98690.20
2018-01-05T08:17:44.634Z,98687.53
2018-01-05T08:20:12.345Z,98688.38
2018-01-05T08:22:39.914Z,98682.91
2018-01-05T08:25:07.781Z,98680.80
2018-01-05T08:27:35.391Z,98687.44
2018-01-05T08:30:03.217Z,98680.67
2018-01-05T08:32:30.859Z,98683.53
2018-01-05T08:34:58.509Z,98683.34
2018-01-05T08:37:26.054Z,98677.94
2018-01-05T08:39:53.990Z,98676.55
2018-01-05T08:42:21.562Z,98673.85
2018-01-05T08:44:49.119Z,98668.41
2018-01-05T08:47:16.888Z,98675.14
2018-01-05T08:49:44.628Z,98672.69
2018-01-05T08:52:12.191Z,98671.27
2018-01-05T08:54:39.822Z,98675.59
2018-01-05T08:57:07.385Z,98668.72
2018-01-05T08:59:34.943Z,98664.20
2018-01-05T09:02:02.713Z,98673.02
2018-01-05T09:04:30.278Z,98674.36
2018-01-05T09:06:57.887Z,98673.69
2018-01-05T09:09:25.711Z,98676.09
2018-01-05T09:11:53.295Z,98675.48
2018-01-05T09:14:20.862Z,98669.10
2018-01-05T09:16:48.481Z,98673.97
2018-01-05T09:19:16.065Z,98663.84
2018-01-05T09:21:43.896Z,98661.41
2018-01-05T09:24:11.525Z,98662.97
2018-01-05T09:26:39.224Z,98654.88
2018-01-05T09:29:06.788Z,98660.29
2018-01-05T09:31:34.458Z,98652.35
2018-01-05T09:34:02.026Z,98648.48
2018-01-05T09:36:29.575Z,98646.91
2018-01-05T09:38:57.202Z,98645.41
2018-01-05T09:41:24.756Z,98645.59
2018-01-05T09:43:52.362Z,98644.73
2018-01-05T09:46:20.038Z,98635.39
2018-01-05T09:48:47.754Z,98632.38
2018-01-05T09:51:15.472Z,98628.71
2018-01-05T09:53:43.102Z,98627.19
2018-01-05T09:56:10.674Z,98626.82
2018-01-05T09:58:38.247Z,98628.28
2018-01-05T10:01:06.083Z,98624.34
2018-01-05T10:03:33.692Z,98622.83
2018-01-05T10:06:01.420Z,98617.91
2018-01-05T10:08:29.039Z,98621.83
2018-01-05T10:10:56.626Z,98611.42
2018-01-05T10:13:24.346Z,98604.19
2018-01-05T10:15:52.183Z,98607.33
2018-01-05T10:18:19.778Z,98605.97
2018-01-05T10:20:47.358Z,98604.81
2018-01-05T10:23:14.986Z,98593.85
2018-01-05T10:25:42.614Z,98593.75
2018-01-05T10:28:10.273Z,98590.78
2018-01-05T10:30:37.921Z,98590.06
2018-01-05T10:33:05.517Z,98584.00
2018-01-05T10:35:33.063Z,98580.80
2018-01-05T10:38:00.744Z,98577.38
2018-01-05T10:40:28.377Z,98582.75
2018-01-05T10:42:55.939Z,98579.67
2018-01-05T10:45:23.623Z,98578.39
2018-01-05T10:47:51.276Z,98573.05
2018-01-05T10:50:18.827Z,98577.20
2018-01-05T10:52:46.444Z,98571.88
2018-01-05T10:55:14.157Z,98572.27
2018-01-05T10:57:41.872Z,98578.36
2018-01-05T11:00:09.477Z,98583.89
2018-01-05T11:02:37.038Z,98577.52
2018-01-05T11:05:04.594Z,98575.11
2018-01-05T11:07:32.372Z,98578.31
2018-01-05T11:10:00.091Z,98573.29
2018-01-05T11:12:27.905Z,98581.52
2018-01-05T11:14:55.522Z,98576.65
2018-01-05T11:17:23.077Z,98584.02
2018-01-05T11:19:50.638Z,98586.29
2018-01-05T11:22:18.248Z,98586.95
2018-01-05T11:24:45.812Z,98587.33
2018-01-05T11:27:13.405Z,98591.09
2018-01-05T11:29:41.233Z,98591.42
2018-01-05T11:32:08.798Z,98596.47
2018-01-05T11:34:36.358Z,98604.22
2018-01-05T11:37:04.026Z,98602.33
2018-01-05T11:39:31.779Z,98602.92
2018-01-05T11:41:59.497Z,98604.08
2018-01-05T11:44:27.440Z,98614.41
2018-01-05T11:46:55.258Z,98611.13
2018-01-05T11:49:22.947Z,98606.73
2018-01-05T11:51:50.564Z,98599.78
2018-01-05T11:54:18.123Z,98609.74
2018-01-05T11:56:45.930Z,98615.37
2018-01-05T11:59:13.753Z,98627.69
2018-01-05T12:01:41.567Z,98622.23
2018-01-05T12:04:09.178Z,98634.81
2018-01-05T12:06:37.200Z,98641.94
2018-01-05T12:09:04.848Z,98633.25
2018-01-05T12:11:32.701Z,98637.67
2018-01-05T12:14:00.446Z,98638.31
2018-01-05T12:16:28.009Z,98637.02
2018-01-05T12:18:55.614Z,98643.30
2018-01-05T12:21:23.318Z,98641.41
2018-01-05T12:23:51.023Z,98631.77
2018-01-05T12:26:18.579Z,98633.39
2018-01-05T12:28:46.367Z,98625.14
2018-01-05T12:31:14.286Z,98620.36
2018-01-05T12:33:41.856Z,98621.45
2018-01-05T12:36:09.576Z,98617.30
2018-01-05T12:38:37.240Z,98628.56
2018-01-05T12:41:04.803Z,98634.73
2018-01-05T12:43:32.677Z,98629.42
2018-01-05T12:46:00.286Z,98640.56
2018-01-05T12:48:27.868Z,98638.75
2018-01-05T12:50:55.521Z,98646.33
2018-01-05T12:53:23.249Z,98628.47
2018-01-05T12:55:51.067Z,98633.05
2018-01-05T12:58:19.086Z,98642.22
2018-01-05T13:00:46.905Z,98646.00
2018-01-05T13:03:14.513Z,98641.10
2018-01-05T13:05:42.342Z,98640.69
2018-01-05T13:08:09.909Z,98644.09
2018-01-05T13:10:37.468Z,98647.49
2018-01-05T13:13:05.139Z,98650.92
2018-01-05T13:15:32.914Z,98659.61
2018-01-05T13:18:00.732Z,98663.47
2018-01-05T13:20:28.351Z,98662.05
2018-01-05T13:22:56.126Z,98660.64
2018-01-05T13:25:23.776Z,98664.25
2018-01-05T13:27:51.708Z,98657.03
2018-01-05T13:30:19.316Z,98659.73
2018-01-05T13:32:46.895Z,98660.85
2018-01-05T13:35:14.491Z,98660.67
2018-01-05T13:37:42.070Z,98664.42
2018-01-05T13:40:09.726Z,98656.52
2018-01-05T13:42:37.291Z,98664.58
2018-01-05T13:45:04.883Z,98664.27
2018-01-05T13:47:32.649Z,98659.25
2018-01-05T13:50:00.261Z,98661.95
2018-01-05T13:52:28.084Z,98675.48
2018-01-05T13:54:55.673Z,98680.42
2018-01-05T13:57:23.246Z,98684.95
2018-01-05T13:59:50.832Z,98693.34
2018-01-05T14:02:18.556Z,98702.77
2018-01-05T14:04:46.188Z,98701.20
2018-01-05T14:07:13.986Z,98703.54
2018-01-05T14:09:41.558Z,98705.52
2018-01-05T14:12:09.329Z,98710.52
2018-01-05T14:14:37.068Z,98711.52
2018-01-05T14:17:04.724Z,98718.41
2018-01-05T14:19:32.487Z,98719.91
2018-01-05T14:22:00.301Z,98718.59
2018-01-05T14:24:27.974Z,98730.84
2018-01-05T14:26:55.559Z,98741.05
2018-01-05T14:29:23.318Z,98735.89
2018-01-05T14:31:51.040Z,98736.61
2018-01-05T14:34:18.756Z,98742.98
2018-01-05T14:36:46.482Z,98745.64
2018-01-05T14:39:14.050Z,98748.59
2018-01-05T14:41:41.695Z,98752.08
2018-01-05T14:44:09.289Z,98761.00
2018-01-05T14:46:37.084Z,98751.31
2018-01-05T14:49:04.902Z,98766.69
2018-01-05T14:51:32.512Z,98759.73
2018-01-05T14:54:00.134Z,98772.59
2018-01-05T14:56:27.747Z,98774.03
2018-01-05T14:58:55.314Z,98777.59
2018-01-05T15:01:23.091Z,98786.82
2018-01-05T15:03:51.125Z,98762.05
2018-01-05T15:06:18.810Z,98791.55
2018-01-05T15:08:46.386Z,98789.19
2018-01-05T15:11:13.964Z,98790.89
2018-01-05T15:13:41.575Z,98782.69
2018-01-05T15:16:09.150Z,98773.81
2018-01-05T15:18:36.979Z,98782.76
2018-01-05T15:21:04.560Z,98789.44
2018-01-05T15:23:32.140Z,98797.85
2018-01-05T15:25:59.748Z,98796.83
2018-01-05T15:28:27.320Z,98792.92
2018-01-05T15:30:54.955Z,98788.05
2018-01-05T15:33:22.727Z,98789.02
2018-01-05T15:35:50.306Z,98795.16
2018-01-05T15:38:17.899Z,98810.58
2018-01-05T15:40:45.466Z,98804.49
2018-01-05T15:43:13.173Z,98807.92
2018-01-05T15:45:40.807Z,98816.44
2018-01-05T15:48:08.382Z,98824.34
2018-01-05T15:50:35.983Z,98819.97
2018-01-05T15:53:03.661Z,98821.88
2018-01-05T15:55:31.298Z,98822.36
2018-01-05T15:57:59.006Z,98816.62
2018-01-05T16:00:26.578Z,98819.34
2018-01-05T16:02:54.202Z,98819.81
2018-01-05T16:05:21.774Z,98819.77
2018-01-05T16:07:49.406Z,98822.54
2018-01-05T16:10:17.000Z,98832.51
2018-01-05T16:12:44.714Z,98827.91
2018-01-05T16:15:12.424Z,98829.42
2018-01-05T16:17:40.045Z,98833.08
2018-01-05T16:20:07.722Z,98837.78
2018-01-05T16:22:35.488Z,98851.92
2018-01-05T16:25:03.079Z,98863.13
2018-01-05T16:27:30.682Z,98859.70
2018-01-05T16:29:58.430Z,98859.00
2018-01-05T16:32:26.150Z,98860.52
2018-01-05T16:40:01.955Z,98852.72
2018-01-05T16:42:29.626Z,98869.13
2018-01-05T16:44:57.275Z,98876.97
2018-01-05T16:47:24.859Z,98875.22
2018-01-05T16:49:52.486Z,98873.81
2018-01-05T16:52:20.054Z,98880.84
2018-01-05T16:54:47.865Z,98891.36
2018-01-05T16:57:15.508Z,98889.93
2018-01-05T16:59:43.075Z,98889.09
2018-01-05T17:02:10.638Z,98895.09
2018-01-05T17:04:38.387Z,98898.32
2018-01-05T17:07:05.971Z,98895.86
2018-01-05T17:09:33.532Z,98898.06
2018-01-05T17:12:01.180Z,98897.44
2018-01-05T17:14:28.750Z,98903.14
2018-01-05T17:16:56.492Z,98896.09
2018-01-05T17:19:24.190Z,98887.66
2018-01-05T17:21:51.778Z,98899.86
2018-01-05T17:24:19.374Z,98900.27
2018-01-05T17:26:47.151Z,98906.97
2018-01-05T17:29:14.727Z,98904.63
2018-01-05T17:31:42.534Z,98910.73
2018-01-05T17:34:10.355Z,98914.16
2018-01-05T17:36:37.938Z,98918.59
2018-01-05T17:39:05.542Z,98917.16
2018-01-05T17:41:33.407Z,98923.23
2018-01-05T17:44:00.971Z,98924.45
2018-01-05T17:46:28.743Z,98928.21
2018-01-05T17:48:56.408Z,98938.42
2018-01-05T17:51:23.988Z,98940.34
2018-01-05T17:53:51.563Z,98946.03
2018-01-05T17:56:19.201Z,98946.80
2018-01-05T17:58:47.022Z,98948.04
2018-01-05T18:01:14.611Z,98940.97
2018-01-05T18:03:42.429Z,98946.83
2018-01-05T18:06:09.991Z,98952.38
2018-01-05T18:08:37.807Z,98953.73
2018-01-05T18:11:05.587Z,98955.78
2018-01-05T18:13:33.162Z,98948.25
2018-01-05T18:16:00.751Z,98947.58
2018-01-05T18:18:28.583Z,98947.33
2018-01-05T18:20:56.178Z,98952.52
2018-01-05T18:23:23.735Z,98953.65
2018-01-05T18:25:51.362Z,98948.30
2018-01-05T18:28:18.950Z,98947.58
2018-01-05T18:30:46.554Z,98955.66
2018-01-05T18:33:14.202Z,98960.58
2018-01-05T18:35:41.781Z,98958.38
2018-01-05T18:38:09.346Z,98960.45
2018-01-05T18:40:37.340Z,98962.34
2018-01-05T18:43:05.159Z,98971.45
2018-01-05T18:45:32.890Z,98976.88
2018-01-05T18:48:00.514Z,98973.28
2018-01-05T18:50:28.091Z,98980.05
2018-01-05T18:52:55.723Z,98984.19
2018-01-05T18:55:23.350Z,98987.46
2018-01-05T18:57:50.914Z,98990.17
2018-01-05T19:00:18.657Z,98996.95
2018-01-05T19:02:46.431Z,98992.89
2018-01-05T19:05:14.006Z,98995.39
2018-01-05T19:07:41.619Z,99003.96
2018-01-05T19:10:09.299Z,99003.33
2018-01-05T19:12:36.870Z,99007.88
2018-01-05T19:15:04.693Z,99009.24
2018-01-05T19:17:32.473Z,99008.78
2018-01-05T19:20:00.061Z,99012.25
2018-01-05T19:22:27.850Z,99016.94
2018-01-05T19:24:55.669Z,99008.38
2018-01-05T19:27:23.386Z,99007.27
2018-01-05T19:29:50.962Z,99016.58
2018-01-05T19:32:18.709Z,99021.64
2018-01-05T19:34:46.539Z,99026.92
2018-01-05T19:37:14.119Z,99007.12
2018-01-05T19:39:41.757Z,99013.84
2018-01-05T19:42:09.585Z,99015.00
2018-01-05T19:44:37.163Z,99016.41
2018-01-05T19:47:05.033Z,99013.95
2018-01-05T19:49:32.604Z,99003.43
2018-01-05T19:52:00.170Z,99011.53
2018-01-05T19:54:27.987Z,98999.59
2018-01-05T19:56:55.563Z,98995.67
2018-01-05T19:59:23.138Z,99000.42
2018-01-05T20:01:50.892Z,99001.56
2018-01-05T20:04:18.660Z,99007.63
2018-01-05T20:06:46.475Z,98988.88
2018-01-05T20:09:14.296Z,99003.55
2018-01-05T20:11:41.870Z,99012.93
2018-01-05T20:14:09.436Z,99010.56
2018-01-05T20:16:37.032Z,99015.53
2018-01-05T20:19:04.602Z,99019.27
2018-01-05T20:21:32.168Z,99013.98
2018-01-05T20:24:00.005Z,99017.90
2018-01-05T20:26:27.590Z,99027.80
2018-01-05T20:28:55.322Z,99029.64
2018-01-05T20:31:22.950Z,99032.17
2018-01-05T20:33:50.546Z,99039.56
2018-01-05T20:36:18.120Z,99049.52
2018-01-05T20:38:45.910Z,99045.55
2018-01-05T20:41:13.473Z,99039.88
2018-01-05T20:43:41.248Z,99040.55
2018-01-05T20:46:08.874Z,99041.18
2018-01-05T20:48:36.478Z,99043.52
2018-01-05T20:51:04.063Z,99039.23
2018-01-05T20:53:31.776Z,99040.42
2018-01-05T20:55:59.504Z,99044.09
2018-01-05T20:58:27.220Z,99038.78
2018-01-05T21:00:54.944Z,99043.56
2018-01-05T21:03:22.514Z,99042.23
2018-01-05T21:05:50.309Z,99046.04
2018-01-05T21:08:17.946Z,99045.48
2018-01-05T21:10:45.526Z,99063.54
2018-01-05T21:13:13.095Z,99056.25
2018-01-05T21:15:40.771Z,99057.82
2018-01-05T21:18:08.337Z,99057.05
2018-01-05T21:20:35.906Z,99064.69
2018-01-05T21:23:03.591Z,99072.76
2018-01-05T21:25:31.162Z,99071.67
2018-01-05T21:27:58.745Z,99072.54
2018-01-05T21:30:26.588Z,99079.95
2018-01-05T21:32:54.433Z,99084.24
2018-01-05T21:35:22.224Z,99089.72
2018-01-05T21:37:49.842Z,99096.60
2018-01-05T21:40:17.403Z,99094.86
2018-01-05T21:42:44.968Z,99101.34
2018-01-05T21:45:12.800Z,99102.63
2018-01-05T21:47:40.380Z,99111.19
2018-01-05T21:50:07.949Z,99110.98
2018-01-05T21:52:35.578Z,99104.89
2018-01-05T21:55:03.368Z,99105.58
2018-01-05T21:57:30.948Z,99106.92
2018-01-05T21:59:58.585Z,99101.75
2018-01-05T22:02:26.164Z,99101.51
2018-01-05T22:04:53.734Z,99098.41
2018-01-05T22:07:21.370Z,99098.73
2018-01-05T22:09:49.090Z,99100.64
2018-01-05T22:12:16.806Z,99096.55
2018-01-05T22:14:44.421Z,99092.46
2018-01-05T22:17:11.995Z,99093.02
2018-01-05T22:19:39.562Z,99095.17
2018-01-05T22:22:07.466Z,99093.47
2018-01-05T22:24:35.186Z,99098.66
2018-01-05T22:27:02.750Z,99097.62
2018-01-05T22:29:30.374Z,99096.47
2018-01-05T22:31:58.113Z,99101.75
2018-01-05T22:34:25.659Z,99098.30
2018-01-05T22:36:53.313Z,99097.14
2018-01-05T22:39:20.869Z,99100.04
2018-01-05T22:41:48.438Z,99095.34
2018-01-05T22:44:16.070Z,99095.67
2018-01-05T22:46:43.846Z,99091.48
2018-01-05T22:49:11.434Z,99092.25
2018-01-05T22:51:39.282Z,99097.79
2018-01-05T22:54:06.850Z,99096.92
2018-01-05T22:56:34.527Z,99098.72
2018-01-05T22:59:02.161Z,99095.20
2018-01-05T23:01:29.745Z,99097.61
2018-01-05T23:03:57.572Z,99101.00
2018-01-05T23:06:25.389Z,99101.55
2018-01-05T23:08:52.970Z,99100.59
2018-01-05T23:11:20.529Z,99098.99
2018-01-05T23:13:48.160Z,99109.92
2018-01-05T23:16:15.722Z,99114.20
2018-01-05T23:18:43.477Z,99112.42
2018-01-05T23:21:11.299Z,99104.41
2018-01-05T23:23:39.022Z,99099.22
2018-01-05T23:26:06.594Z,99100.25
2018-01-05T23:28:34.302Z,99103.19
2018-01-05T23:31:02.028Z,99101.30
2018-01-05T23:33:29.600Z,99099.92
2018-01-05T23:35:57.239Z,99095.86
2018-01-05T23:38:24.783Z,99103.37
2018-01-05T23:40:52.518Z,99108.45
2018-01-05T23:43:20.137Z,99114.61
2018-01-05T23:45:47.851Z,99103.13
2018-01-05T23:48:15.426Z,99108.52
2018-01-05T23:50:43.105Z,99121.97
2018-01-05T23:53:10.680Z,99126.54
2018-01-05T23:55:38.251Z,99129.68
2018-01-05T23:58:05.960Z,99131.15
